Time;durP1;ratioP1;P1;durP2;ratioP2;P2;SDS_P1;SDS_P2;PMS_P1;PMS_P2;Temp;Humidity;BMP_temperature;BMP_pressure;BME280_temperature;BME280_humidity;BME280_pressure;Samples;Min_cycle;Max_cycle;Signal;HPM_P1;HPM_P2
2022/04/03 00:00:18;;;;;;;;;;;22.70;31.70;;;;;;5071158;28;19924;-67
2022/04/03 00:02:45;;;;;;;;;;;22.70;31.80;;;;;;5089263;28;20388;-67
2022/04/03 00:05:12;;;;;;;;;;;22.70;31.80;;;;;;5089525;28;19924;-67
2022/04/03 00:07:39;;;;;;;;;;;22.70;31.80;;;;;;5084368;28;20299;-67
2022/04/03 00:10:07;;;;;;;;;;;22.70;31.80;;;;;;5071483;28;19927;-67
2022/04/03 00:12:34;;;;;;;;;;;22.70;31.80;;;;;;5088673;28;19981;-67
2022/04/03 00:15:01;;;;;;;;;;;22.70;31.80;;;;;;5089335;28;19972;-67
2022/04/03 00:17:28;;;;;;;;;;;22.70;31.80;;;;;;5089217;28;20461;-67
2022/04/03 00:19:55;;;;;;;;;;;22.70;31.80;;;;;;5088799;28;19967;-67
2022/04/03 00:22:22;;;;;;;;;;;22.70;31.80;;;;;;5089248;28;19974;-67
2022/04/03 00:24:49;;;;;;;;;;;22.70;31.80;;;;;;5088903;28;19964;-67
2022/04/03 00:27:16;;;;;;;;;;;22.70;31.80;;;;;;5088814;28;19992;-67
2022/04/03 00:29:43;;;;;;;;;;;22.70;31.80;;;;;;5089065;28;19950;-67
2022/04/03 00:32:10;;;;;;;;;;;22.70;31.80;;;;;;5088977;28;19924;-67
2022/04/03 00:34:37;;;;;;;;;;;22.70;31.80;;;;;;5089456;28;19924;-67
2022/04/03 00:37:04;;;;;;;;;;;22.70;31.90;;;;;;5087049;28;20391;-67
2022/04/03 00:39:31;;;;;;;;;;;22.70;31.90;;;;;;5085997;28;19924;-67
2022/04/03 00:41:58;;;;;;;;;;;22.70;31.90;;;;;;5088279;28;20396;-67
2022/04/03 00:44:26;;;;;;;;;;;22.70;31.90;;;;;;5090387;28;20619;-67
2022/04/03 00:46:53;;;;;;;;;;;22.70;31.90;;;;;;5092961;28;19924;-67
2022/04/03 00:49:21;;;;;;;;;;;22.60;31.90;;;;;;5092952;28;19946;-67
2022/04/03 00:51:48;;;;;;;;;;;22.60;31.90;;;;;;5093199;28;19977;-67
2022/04/03 00:54:15;;;;;;;;;;;22.60;31.90;;;;;;5093477;28;20093;-67
2022/04/03 00:56:43;;;;;;;;;;;22.60;31.90;;;;;;5092154;28;20179;-67
2022/04/03 00:59:11;;;;;;;;;;;22.60;31.90;;;;;;5075115;28;19924;-67
2022/04/03 01:01:39;;;;;;;;;;;22.60;31.90;;;;;;5092223;28;19971;-67
2022/04/03 01:04:07;;;;;;;;;;;22.60;31.90;;;;;;5092871;28;20374;-68
2022/04/03 01:06:34;;;;;;;;;;;22.60;31.90;;;;;;5092501;28;20288;-67
2022/04/03 01:09:02;;;;;;;;;;;22.60;31.90;;;;;;5089329;28;20532;-67
2022/04/03 01:11:29;;;;;;;;;;;22.60;31.90;;;;;;5091806;28;19924;-67
2022/04/03 01:13:57;;;;;;;;;;;22.60;31.90;;;;;;5091408;28;19932;-67
2022/04/03 01:16:24;;;;;;;;;;;22.60;31.90;;;;;;5074646;28;20254;-67
2022/04/03 01:18:51;;;;;;;;;;;22.60;31.90;;;;;;5092472;28;20145;-67
2022/04/03 01:21:18;;;;;;;;;;;22.60;31.90;;;;;;5092467;28;19978;-67
2022/04/03 01:23:45;;;;;;;;;;;22.60;31.90;;;;;;5093069;28;19961;-67
2022/04/03 01:26:12;;;;;;;;;;;22.60;31.90;;;;;;5074210;28;19951;-67
2022/04/03 01:28:39;;;;;;;;;;;22.60;31.90;;;;;;5092534;28;19924;-67
2022/04/03 01:31:08;;;;;;;;;;;22.60;31.90;;;;;;5092323;28;20221;-67
2022/04/03 01:33:35;;;;;;;;;;;22.60;31.90;;;;;;5092452;28;20342;-67
2022/04/03 01:36:02;;;;;;;;;;;22.50;31.80;;;;;;5092433;28;19924;-67
2022/04/03 01:38:29;;;;;;;;;;;22.60;31.90;;;;;;5091416;28;19985;-67
2022/04/03 01:40:56;;;;;;;;;;;22.50;31.80;;;;;;5088139;28;19924;-66
2022/04/03 01:43:23;;;;;;;;;;;22.50;31.80;;;;;;5091518;28;19924;-67
2022/04/03 01:45:50;;;;;;;;;;;22.60;31.90;;;;;;5092138;28;19971;-67
2022/04/03 01:48:18;;;;;;;;;;;22.50;31.80;;;;;;5073836;28;19939;-68
2022/04/03 01:50:46;;;;;;;;;;;22.50;31.90;;;;;;5092109;28;19963;-67
2022/04/03 01:53:13;;;;;;;;;;;22.50;31.90;;;;;;5092053;28;19977;-67
2022/04/03 01:55:40;;;;;;;;;;;22.50;31.90;;;;;;5091411;28;20381;-68
2022/04/03 01:58:09;;;;;;;;;;;22.50;31.90;;;;;;5091482;28;19928;-67
2022/04/03 02:00:36;;;;;;;;;;;22.50;31.90;;;;;;5074090;28;19928;-67
2022/04/03 02:03:04;;;;;;;;;;;22.50;31.90;;;;;;5091193;28;19928;-67
2022/04/03 02:05:31;;;;;;;;;;;22.50;32.00;;;;;;5092089;28;20011;-65
2022/04/03 02:07:58;;;;;;;;;;;22.50;32.00;;;;;;5091137;28;19977;-67
2022/04/03 02:10:25;;;;;;;;;;;22.50;32.00;;;;;;5092005;28;19932;-67
2022/04/03 02:12:52;;;;;;;;;;;22.50;32.00;;;;;;5086257;28;19928;-67
2022/04/03 02:15:19;;;;;;;;;;;22.50;32.00;;;;;;5091626;28;19924;-67
2022/04/03 02:17:46;;;;;;;;;;;22.50;32.00;;;;;;5090851;28;19924;-67
2022/04/03 02:20:13;;;;;;;;;;;22.50;32.00;;;;;;5090949;28;19978;-67
2022/04/03 02:22:40;;;;;;;;;;;22.50;32.00;;;;;;5091057;28;19947;-68
2022/04/03 02:25:11;;;;;;;;;;;22.50;32.00;;;;;;5090823;28;20194;-67
2022/04/03 02:27:39;;;;;;;;;;;22.50;32.00;;;;;;5091237;28;19925;-67
2022/04/03 02:30:08;;;;;;;;;;;22.50;32.00;;;;;;5073262;28;19994;-67
2022/04/03 02:32:37;;;;;;;;;;;22.40;32.00;;;;;;5091376;28;20407;-67
2022/04/03 02:35:04;;;;;;;;;;;22.50;32.10;;;;;;5091400;28;20080;-67
2022/04/03 02:37:33;;;;;;;;;;;22.50;32.10;;;;;;5090697;28;20487;-67
2022/04/03 02:40:00;;;;;;;;;;;22.50;32.10;;;;;;5091263;28;19932;-67
2022/04/03 02:42:27;;;;;;;;;;;22.50;32.10;;;;;;5090737;28;19959;-67
2022/04/03 02:44:54;;;;;;;;;;;22.50;32.10;;;;;;5085713;28;19924;-67
2022/04/03 02:47:22;;;;;;;;;;;22.50;32.10;;;;;;5091036;28;19969;-67
2022/04/03 02:49:52;;;;;;;;;;;22.50;32.10;;;;;;5090677;28;19924;-67
2022/04/03 02:52:20;;;;;;;;;;;22.40;32.20;;;;;;5090998;28;19982;-67
2022/04/03 02:54:47;;;;;;;;;;;22.40;32.10;;;;;;5090634;28;19924;-67
2022/04/03 02:57:15;;;;;;;;;;;22.50;32.20;;;;;;5073001;28;20353;-68
2022/04/03 02:59:43;;;;;;;;;;;22.50;32.10;;;;;;5090632;28;20261;-68
2022/04/03 03:02:10;;;;;;;;;;;22.50;32.10;;;;;;5090841;28;19971;-68
2022/04/03 03:04:38;;;;;;;;;;;22.50;32.10;;;;;;5090285;28;19935;-68
2022/04/03 03:07:06;;;;;;;;;;;22.40;32.10;;;;;;5091289;28;20241;-68
2022/04/03 03:09:34;;;;;;;;;;;22.40;32.10;;;;;;5090956;28;19963;-68
2022/04/03 03:12:01;;;;;;;;;;;22.40;32.10;;;;;;5091057;28;19928;-68
2022/04/03 03:14:28;;;;;;;;;;;22.40;32.10;;;;;;5089700;28;19932;-68
2022/04/03 03:16:55;;;;;;;;;;;22.40;32.10;;;;;;5086327;28;20170;-68
2022/04/03 03:19:22;;;;;;;;;;;22.40;32.10;;;;;;5090108;28;20322;-67
2022/04/03 03:21:49;;;;;;;;;;;22.40;32.10;;;;;;5090714;28;19924;-67
2022/04/03 03:24:16;;;;;;;;;;;22.40;32.10;;;;;;5073272;28;19924;-67
2022/04/03 03:26:43;;;;;;;;;;;22.40;32.10;;;;;;5090878;28;19967;-67
2022/04/03 03:29:10;;;;;;;;;;;22.40;32.10;;;;;;5090583;28;19923;-67
2022/04/03 03:31:37;;;;;;;;;;;22.40;32.10;;;;;;5091604;28;20441;-67
2022/04/03 03:34:04;;;;;;;;;;;22.40;32.10;;;;;;5090749;28;19950;-67
2022/04/03 03:36:31;;;;;;;;;;;22.40;32.10;;;;;;5090717;28;20170;-68
2022/04/03 03:38:58;;;;;;;;;;;22.40;32.10;;;;;;5090878;28;19997;-68
2022/04/03 03:41:25;;;;;;;;;;;22.40;32.10;;;;;;5090070;28;20470;-68
2022/04/03 03:43:52;;;;;;;;;;;22.40;32.10;;;;;;5092344;28;19928;-67
2022/04/03 03:46:19;;;;;;;;;;;22.40;32.10;;;;;;5092827;28;20318;-68
2022/04/03 03:48:46;;;;;;;;;;;22.40;32.10;;;;;;5088044;28;19928;-68
2022/04/03 03:51:13;;;;;;;;;;;22.40;32.10;;;;;;5092237;28;19993;-67
2022/04/03 03:53:41;;;;;;;;;;;22.40;32.10;;;;;;5091825;28;19924;-67
2022/04/03 03:56:08;;;;;;;;;;;22.40;32.10;;;;;;5092972;28;20449;-67
2022/04/03 03:58:35;;;;;;;;;;;22.40;32.10;;;;;;5094685;28;19973;-67
2022/04/03 04:01:02;;;;;;;;;;;22.30;32.00;;;;;;5090461;28;19936;-67
2022/04/03 04:03:30;;;;;;;;;;;22.40;32.10;;;;;;5089718;28;19924;-68
2022/04/03 04:05:56;;;;;;;;;;;22.30;32.00;;;;;;5089586;28;19924;-68
2022/04/03 04:08:23;;;;;;;;;;;22.40;32.00;;;;;;5089743;28;20004;-68
2022/04/03 04:10:50;;;;;;;;;;;22.40;32.00;;;;;;5089570;28;20410;-68
2022/04/03 04:13:17;;;;;;;;;;;22.40;32.00;;;;;;5089542;28;20281;-68
2022/04/03 04:15:44;;;;;;;;;;;22.40;32.00;;;;;;5088882;28;19981;-68
2022/04/03 04:18:12;;;;;;;;;;;22.30;31.90;;;;;;5089346;28;20205;-68
2022/04/03 04:20:39;;;;;;;;;;;22.30;31.90;;;;;;5084980;28;19925;-67
2022/04/03 04:23:06;;;;;;;;;;;22.30;32.00;;;;;;5089135;28;19947;-68
2022/04/03 04:25:34;;;;;;;;;;;22.30;32.00;;;;;;5089004;28;20194;-67
2022/04/03 04:28:01;;;;;;;;;;;22.30;32.00;;;;;;5088823;28;19924;-68
2022/04/03 04:30:28;;;;;;;;;;;22.30;32.00;;;;;;5089312;28;19997;-67
2022/04/03 04:32:54;;;;;;;;;;;22.30;32.00;;;;;;5088699;28;19975;-67
2022/04/03 04:35:22;;;;;;;;;;;22.30;32.00;;;;;;5089658;28;19924;-68
2022/04/03 04:37:50;;;;;;;;;;;22.20;32.00;;;;;;5088814;28;20011;-68
2022/04/03 04:40:17;;;;;;;;;;;22.30;32.00;;;;;;5088887;28;20377;-68
2022/04/03 04:42:44;;;;;;;;;;;22.30;32.00;;;;;;5088901;28;19924;-70
2022/04/03 04:45:11;;;;;;;;;;;22.20;31.90;;;;;;5088812;28;19969;-68
2022/04/03 04:47:44;;;;;;;;;;;22.20;31.90;;;;;;5088997;28;20144;-67
2022/04/03 04:50:14;;;;;;;;;;;22.20;31.90;;;;;;5084177;28;19924;-68
2022/04/03 04:52:41;;;;;;;;;;;22.20;31.90;;;;;;5071409;28;20520;-68
2022/04/03 04:55:09;;;;;;;;;;;22.20;31.90;;;;;;5088955;28;20231;-68
2022/04/03 04:57:37;;;;;;;;;;;22.20;31.90;;;;;;5088872;28;19955;-68
2022/04/03 05:00:08;;;;;;;;;;;22.20;31.90;;;;;;5089222;28;19931;-67
2022/04/03 05:02:35;;;;;;;;;;;22.20;31.90;;;;;;5088721;28;20007;-69
2022/04/03 05:05:05;;;;;;;;;;;22.20;31.80;;;;;;5089459;28;19924;-68
2022/04/03 05:07:33;;;;;;;;;;;22.20;31.80;;;;;;5070857;28;19935;-68
2022/04/03 05:10:01;;;;;;;;;;;22.20;31.60;;;;;;5088545;28;19924;-68
2022/04/03 05:12:35;;;;;;;;;;;22.10;31.50;;;;;;5088590;28;19997;-68
2022/04/03 05:15:02;;;;;;;;;;;22.10;31.50;;;;;;5088589;28;19924;-69
2022/04/03 05:17:29;;;;;;;;;;;22.00;31.60;;;;;;5088662;28;19974;-68
2022/04/03 05:19:56;;;;;;;;;;;22.00;31.60;;;;;;5088707;28;19928;-68
2022/04/03 05:22:25;;;;;;;;;;;22.00;31.70;;;;;;5066028;28;19928;-68
2022/04/03 05:24:56;;;;;;;;;;;22.00;31.70;;;;;;5088964;28;20292;-68
2022/04/03 05:27:24;;;;;;;;;;;22.00;31.60;;;;;;5088524;28;19950;-68
2022/04/03 05:29:51;;;;;;;;;;;22.00;31.60;;;;;;5090437;28;19998;-68
2022/04/03 05:32:28;;;;;;;;;;;22.00;31.60;;;;;;5091141;28;19932;-68
2022/04/03 05:34:55;;;;;;;;;;;22.00;31.60;;;;;;5092510;28;20055;-69
2022/04/03 05:37:23;;;;;;;;;;;22.00;31.60;;;;;;5092164;28;19946;-68
2022/04/03 05:39:51;;;;;;;;;;;22.00;31.50;;;;;;5073812;28;20186;-68
2022/04/03 05:42:18;;;;;;;;;;;22.10;31.60;;;;;;5092042;28;19928;-68
2022/04/03 05:44:45;;;;;;;;;;;22.10;31.60;;;;;;5092046;28;20338;-67
2022/04/03 05:47:12;;;;;;;;;;;22.10;31.40;;;;;;5074010;28;19924;-68
2022/04/03 05:49:40;;;;;;;;;;;22.10;31.40;;;;;;5091687;28;19955;-67
2022/04/03 05:52:07;;;;;;;;;;;22.20;31.40;;;;;;5091492;28;19924;-68
2022/04/03 05:54:34;;;;;;;;;;;22.20;31.30;;;;;;5087535;28;20023;-69
2022/04/03 05:57:01;;;;;;;;;;;22.20;31.10;;;;;;5091134;28;20001;-68
2022/04/03 05:59:28;;;;;;;;;;;22.30;31.70;;;;;;5091765;28;19932;-69
2022/04/03 06:01:55;;;;;;;;;;;22.30;31.10;;;;;;5091202;28;19924;-68
2022/04/03 06:04:22;;;;;;;;;;;22.30;31.00;;;;;;5091585;28;19928;-68
2022/04/03 06:06:49;;;;;;;;;;;22.40;31.10;;;;;;5091565;28;19928;-68
2022/04/03 06:09:16;;;;;;;;;;;22.40;30.90;;;;;;5091594;28;19978;-68
2022/04/03 06:11:43;;;;;;;;;;;22.40;30.80;;;;;;5091167;28;20392;-68
2022/04/03 06:14:10;;;;;;;;;;;22.50;30.80;;;;;;5074987;28;20408;-67
2022/04/03 06:16:37;;;;;;;;;;;22.50;30.70;;;;;;5071095;28;19977;-67
2022/04/03 06:19:04;;;;;;;;;;;22.60;30.70;;;;;;5070972;28;19924;-67
2022/04/03 06:21:31;;;;;;;;;;;22.70;30.60;;;;;;5070747;28;19978;-67
2022/04/03 06:23:58;;;;;;;;;;;22.70;30.40;;;;;;5069676;28;19928;-68
2022/04/03 06:26:25;;;;;;;;;;;22.80;30.40;;;;;;5067999;28;19935;-68
2022/04/03 06:28:52;;;;;;;;;;;22.80;30.30;;;;;;5070840;28;19925;-68
2022/04/03 06:31:20;;;;;;;;;;;22.80;30.20;;;;;;5070947;28;19924;-67
2022/04/03 06:33:47;;;;;;;;;;;22.90;30.20;;;;;;5070490;28;19936;-67
2022/04/03 06:36:14;;;;;;;;;;;22.90;30.00;;;;;;5070892;28;19924;-67
2022/04/03 06:38:41;;;;;;;;;;;23.00;30.00;;;;;;5070296;28;19978;-67
2022/04/03 06:41:08;;;;;;;;;;;23.00;30.00;;;;;;5071069;28;19928;-67
2022/04/03 06:43:35;;;;;;;;;;;23.10;30.00;;;;;;5069859;28;19928;-67
2022/04/03 06:46:02;;;;;;;;;;;23.10;30.10;;;;;;5070505;28;19972;-66
2022/04/03 06:48:30;;;;;;;;;;;23.20;30.00;;;;;;5070381;28;19971;-67
2022/04/03 06:50:57;;;;;;;;;;;23.20;29.90;;;;;;5052539;28;19932;-68
2022/04/03 06:53:24;;;;;;;;;;;23.20;29.90;;;;;;5069905;28;19963;-68
2022/04/03 06:55:51;;;;;;;;;;;23.20;29.80;;;;;;5048074;28;19932;-68
2022/04/03 06:58:18;;;;;;;;;;;23.30;29.80;;;;;;5070222;28;19970;-68
2022/04/03 07:00:51;;;;;;;;;;;23.30;29.70;;;;;;5070203;28;20209;-68
2022/04/03 07:03:18;;;;;;;;;;;23.40;29.70;;;;;;5069995;28;19958;-68
2022/04/03 07:05:45;;;;;;;;;;;23.40;29.70;;;;;;5070375;28;19924;-68
2022/04/03 07:08:12;;;;;;;;;;;23.50;29.70;;;;;;5070253;28;20354;-68
2022/04/03 07:10:39;;;;;;;;;;;23.50;29.60;;;;;;5071075;28;20550;-68
2022/04/03 07:13:06;;;;;;;;;;;23.60;29.50;;;;;;5035694;28;20057;-68
2022/04/03 07:15:33;;;;;;;;;;;23.60;29.50;;;;;;5052298;28;20171;-68
2022/04/03 07:18:00;;;;;;;;;;;23.70;29.40;;;;;;5070157;28;19924;-68
2022/04/03 07:20:27;;;;;;;;;;;23.70;29.40;;;;;;5069838;28;19959;-68
2022/04/03 07:22:55;;;;;;;;;;;23.70;29.30;;;;;;5068980;28;19970;-68
2022/04/03 07:25:23;;;;;;;;;;;23.80;29.30;;;;;;5070013;28;19928;-67
2022/04/03 07:27:50;;;;;;;;;;;23.90;29.20;;;;;;5064741;28;19954;-68
2022/04/03 07:30:17;;;;;;;;;;;23.90;29.20;;;;;;5070140;28;19985;-68
2022/04/03 07:32:44;;;;;;;;;;;23.90;29.10;;;;;;5069826;28;20436;-67
2022/04/03 07:35:11;;;;;;;;;;;24.00;29.10;;;;;;5051657;28;20139;-68
2022/04/03 07:37:39;;;;;;;;;;;24.10;29.00;;;;;;5069696;28;20195;-68
2022/04/03 07:40:07;;;;;;;;;;;24.10;28.90;;;;;;5069510;28;20611;-68
2022/04/03 07:42:35;;;;;;;;;;;24.10;28.90;;;;;;5069601;28;19924;-67
2022/04/03 07:45:04;;;;;;;;;;;24.10;28.90;;;;;;5069331;28;19924;-68
2022/04/03 07:47:32;;;;;;;;;;;24.10;28.80;;;;;;5069645;28;19973;-67
2022/04/03 07:50:03;;;;;;;;;;;24.20;28.80;;;;;;5078121;28;19924;-68
2022/04/03 07:52:32;;;;;;;;;;;24.20;28.80;;;;;;5089482;28;19931;-68
2022/04/03 07:54:59;;;;;;;;;;;24.20;28.80;;;;;;5088542;28;19952;-67
2022/04/03 07:57:27;;;;;;;;;;;24.30;28.70;;;;;;5089623;28;20477;-68
2022/04/03 07:59:54;;;;;;;;;;;24.30;28.70;;;;;;5089772;28;20387;-68
2022/04/03 08:02:21;;;;;;;;;;;24.30;28.60;;;;;;5085192;28;19924;-68
2022/04/03 08:04:48;;;;;;;;;;;24.40;28.60;;;;;;5089282;28;19924;-67
2022/04/03 08:07:15;;;;;;;;;;;24.40;28.40;;;;;;5089681;28;19924;-67
2022/04/03 08:09:42;;;;;;;;;;;24.50;28.50;;;;;;5088856;28;20179;-67
2022/04/03 08:12:09;;;;;;;;;;;24.50;28.40;;;;;;5089718;28;19928;-67
2022/04/03 08:14:38;;;;;;;;;;;24.50;28.40;;;;;;5087442;28;21320;-68
2022/04/03 08:17:05;;;;;;;;;;;24.50;28.30;;;;;;5089286;28;20631;-67
2022/04/03 08:19:32;;;;;;;;;;;24.60;28.30;;;;;;5089368;28;19924;-69
2022/04/03 08:22:00;;;;;;;;;;;24.60;28.20;;;;;;5089373;28;19928;-66
2022/04/03 08:24:27;;;;;;;;;;;24.60;28.00;;;;;;5088701;28;19928;-66
2022/04/03 08:26:54;;;;;;;;;;;24.70;28.10;;;;;;5088733;28;19924;-67
2022/04/03 08:29:21;;;;;;;;;;;24.70;28.00;;;;;;5089478;28;20407;-66
2022/04/03 08:31:48;;;;;;;;;;;24.70;27.90;;;;;;5090024;28;20392;-66
2022/04/03 08:34:15;;;;;;;;;;;24.80;27.80;;;;;;5084824;28;19924;-66
2022/04/03 08:37:03;;;;;;;;;;;24.90;27.90;;;;;;5089139;28;19977;-67
2022/04/03 08:39:30;;;;;;;;;;;24.90;27.50;;;;;;5088864;28;19931;-67
2022/04/03 08:41:57;;;;;;;;;;;24.90;27.50;;;;;;5071660;28;19924;-67
2022/04/03 08:44:24;;;;;;;;;;;24.90;27.50;;;;;;5088819;28;19924;-67
2022/04/03 08:46:52;;;;;;;;;;;24.90;27.50;;;;;;5089716;28;20380;-66
2022/04/03 08:49:20;;;;;;;;;;;25.00;27.40;;;;;;5090220;28;20338;-66
2022/04/03 08:51:47;;;;;;;;;;;25.00;27.40;;;;;;5090366;28;19935;-67
2022/04/03 08:54:16;;;;;;;;;;;25.00;27.30;;;;;;5092471;28;19923;-67
2022/04/03 08:56:43;;;;;;;;;;;25.00;27.20;;;;;;5092720;28;20163;-67
2022/04/03 08:59:10;;;;;;;;;;;25.10;27.30;;;;;;5091877;28;20415;-67
2022/04/03 09:01:37;;;;;;;;;;;25.10;27.20;;;;;;5091978;28;19971;-66
2022/04/03 09:04:05;;;;;;;;;;;25.10;27.10;;;;;;5071229;28;19924;-66
2022/04/03 09:06:32;;;;;;;;;;;25.10;27.10;;;;;;5091084;28;19924;-67
2022/04/03 09:08:59;;;;;;;;;;;25.10;27.20;;;;;;5076883;28;19973;-67
2022/04/03 09:11:29;;;;;;;;;;;25.10;27.10;;;;;;5095871;28;19970;-66
2022/04/03 09:13:57;;;;;;;;;;;25.10;27.20;;;;;;5096244;28;19928;-66
2022/04/03 09:16:40;;;;;;;;;;;25.10;27.20;;;;;;5096072;28;20467;-66
2022/04/03 09:19:08;;;;;;;;;;;25.20;27.20;;;;;;5096186;28;19928;-66
2022/04/03 09:21:35;;;;;;;;;;;25.20;27.10;;;;;;5092686;28;19938;-66
2022/04/03 09:24:07;;;;;;;;;;;25.20;27.10;;;;;;5092298;28;20441;-66
2022/04/03 09:26:34;;;;;;;;;;;25.30;27.10;;;;;;5092589;28;19924;-67
2022/04/03 09:29:05;;;;;;;;;;;25.30;27.00;;;;;;5092633;28;19925;-66
2022/04/03 09:31:32;;;;;;;;;;;25.30;26.80;;;;;;5093145;28;19932;-66
2022/04/03 09:34:00;;;;;;;;;;;25.30;26.70;;;;;;5092564;28;19932;-67
2022/04/03 09:36:30;;;;;;;;;;;25.40;26.80;;;;;;5088226;28;19964;-67
2022/04/03 09:39:10;;;;;;;;;;;25.40;26.70;;;;;;5092381;28;19924;-67
2022/04/03 09:41:57;;;;;;;;;;;25.40;26.70;;;;;;5074862;28;19924;-67
2022/04/03 09:44:26;;;;;;;;;;;25.40;26.60;;;;;;5093967;28;19977;-67
2022/04/03 09:47:13;;;;;;;;;;;25.40;26.70;;;;;;5075039;28;19931;-67
2022/04/03 09:49:45;;;;;;;;;;;25.40;26.60;;;;;;5093297;28;19928;-67
2022/04/03 09:52:37;;;;;;;;;;;25.40;26.60;;;;;;5092584;28;19924;-68
2022/04/03 09:55:15;;;;;;;;;;;25.50;26.50;;;;;;5092761;28;19927;-66
2022/04/03 09:57:43;;;;;;;;;;;25.50;26.50;;;;;;5075049;28;20113;-67
2022/04/03 10:00:31;;;;;;;;;;;25.50;26.40;;;;;;5078804;28;19967;-66
2022/04/03 10:03:00;;;;;;;;;;;25.50;26.40;;;;;;5092634;28;20602;-67
2022/04/03 10:05:28;;;;;;;;;;;25.60;26.40;;;;;;5093139;28;19932;-67
2022/04/03 10:07:58;;;;;;;;;;;25.60;26.40;;;;;;5089078;28;19936;-67
2022/04/03 10:10:25;;;;;;;;;;;25.60;26.30;;;;;;5092500;28;20174;-66
2022/04/03 10:12:53;;;;;;;;;;;25.60;26.40;;;;;;5092255;28;19927;-66
2022/04/03 10:15:20;;;;;;;;;;;25.70;26.40;;;;;;5093056;28;19977;-66
2022/04/03 10:17:47;;;;;;;;;;;25.70;26.30;;;;;;5091404;28;19924;-66
2022/04/03 10:20:17;;;;;;;;;;;25.70;26.30;;;;;;5074221;28;19953;-68
2022/04/03 10:22:47;;;;;;;;;;;25.80;26.70;;;;;;5092433;28;20009;-66
2022/04/03 10:25:22;;;;;;;;;;;25.80;26.20;;;;;;5096026;28;19924;-67
2022/04/03 10:27:50;;;;;;;;;;;25.80;26.10;;;;;;5095037;28;19969;-68
2022/04/03 10:30:17;;;;;;;;;;;25.90;26.10;;;;;;5095953;28;19924;-67
2022/04/03 10:32:56;;;;;;;;;;;25.90;26.10;;;;;;5077854;28;20335;-67
2022/04/03 10:35:23;;;;;;;;;;;25.90;25.80;;;;;;5095575;28;20306;-66
2022/04/03 10:37:59;;;;;;;;;;;26.00;25.70;;;;;;5093414;28;20569;-67
2022/04/03 10:40:29;;;;;;;;;;;26.00;25.60;;;;;;5088480;28;19958;-67
2022/04/03 10:42:59;;;;;;;;;;;26.00;25.50;;;;;;5092898;28;19928;-67
2022/04/03 10:45:30;;;;;;;;;;;26.00;25.50;;;;;;5075387;28;20379;-68
2022/04/03 10:48:17;;;;;;;;;;;26.00;25.50;;;;;;5075637;28;19947;-67
2022/04/03 10:51:05;;;;;;;;;;;26.00;25.40;;;;;;5094337;28;20110;-68
2022/04/03 10:53:37;;;;;;;;;;;26.10;25.40;;;;;;5095393;28;19924;-68
2022/04/03 10:56:08;;;;;;;;;;;26.10;25.30;;;;;;5096038;28;19946;-67
2022/04/03 10:58:40;;;;;;;;;;;26.10;25.40;;;;;;5096267;28;19931;-67
2022/04/03 11:01:09;;;;;;;;;;;26.10;25.40;;;;;;5093255;28;19928;-67
2022/04/03 11:03:37;;;;;;;;;;;26.10;25.50;;;;;;5073000;28;20011;-67
2022/04/03 11:06:19;;;;;;;;;;;26.10;25.40;;;;;;5090653;28;20033;-68
2022/04/03 11:08:54;;;;;;;;;;;26.10;25.30;;;;;;5093266;28;20419;-67
2022/04/03 11:11:41;;;;;;;;;;;26.10;25.20;;;;;;5068981;28;19946;-62
2022/04/03 11:14:09;;;;;;;;;;;26.10;25.20;;;;;;5091196;28;19978;-67
2022/04/03 11:16:53;;;;;;;;;;;26.10;25.10;;;;;;5091742;28;20153;-67
2022/04/03 11:19:40;;;;;;;;;;;26.10;25.10;;;;;;5092919;28;20052;-68
2022/04/03 11:22:14;;;;;;;;;;;26.20;25.00;;;;;;5090616;28;19977;-68
2022/04/03 11:24:42;;;;;;;;;;;26.20;25.00;;;;;;5090118;28;19977;-68
2022/04/03 11:27:09;;;;;;;;;;;26.20;25.00;;;;;;5092651;28;19924;-68
2022/04/03 11:29:36;;;;;;;;;;;26.20;24.90;;;;;;5093379;28;19924;-69
2022/04/03 11:32:04;;;;;;;;;;;26.20;24.90;;;;;;5075436;28;19931;-68
2022/04/03 11:34:32;;;;;;;;;;;26.20;24.70;;;;;;5074656;28;19950;-69
2022/04/03 11:37:00;;;;;;;;;;;26.30;24.80;;;;;;5092522;28;19924;-68
2022/04/03 11:39:35;;;;;;;;;;;26.20;24.70;;;;;;5093367;28;19924;-69
2022/04/03 11:42:04;;;;;;;;;;;26.20;24.70;;;;;;5075963;28;19924;-68
2022/04/03 11:44:31;;;;;;;;;;;26.30;24.70;;;;;;5086969;28;19981;-66
2022/04/03 11:47:00;;;;;;;;;;;26.30;24.70;;;;;;5071517;28;19928;-66
2022/04/03 11:49:30;;;;;;;;;;;26.30;24.70;;;;;;5071812;28;20393;-66
2022/04/03 11:52:08;;;;;;;;;;;26.30;24.60;;;;;;5089606;28;19928;-67
2022/04/03 11:54:36;;;;;;;;;;;26.40;24.60;;;;;;5089669;28;19958;-65
2022/04/03 11:57:04;;;;;;;;;;;26.40;24.60;;;;;;5089073;28;19964;-67
2022/04/03 11:59:32;;;;;;;;;;;26.40;24.70;;;;;;5089550;28;20407;-67
2022/04/03 12:02:07;;;;;;;;;;;26.40;24.60;;;;;;5089140;28;20015;-67
2022/04/03 12:04:37;;;;;;;;;;;26.40;24.70;;;;;;5089450;28;20092;-68
2022/04/03 12:07:04;;;;;;;;;;;26.40;24.60;;;;;;5089335;28;19924;-66
2022/04/03 12:09:32;;;;;;;;;;;26.40;24.50;;;;;;5089544;28;20247;-66
2022/04/03 12:12:04;;;;;;;;;;;26.40;24.50;;;;;;5088909;28;19924;-66
2022/04/03 12:14:31;;;;;;;;;;;26.40;24.50;;;;;;5085361;28;19979;-66
2022/04/03 12:17:06;;;;;;;;;;;26.40;24.30;;;;;;5088927;28;20380;-66
2022/04/03 12:19:37;;;;;;;;;;;26.50;24.30;;;;;;5089158;28;19924;-67
2022/04/03 12:22:05;;;;;;;;;;;26.40;24.20;;;;;;5089266;28;19989;-66
2022/04/03 12:24:32;;;;;;;;;;;26.40;24.10;;;;;;5070829;28;19924;-66
2022/04/03 12:27:18;;;;;;;;;;;26.40;24.20;;;;;;5088866;28;19924;-66
2022/04/03 12:29:46;;;;;;;;;;;26.40;24.20;;;;;;5088972;28;19924;-66
2022/04/03 12:32:15;;;;;;;;;;;26.40;24.10;;;;;;5089320;28;19924;-66
2022/04/03 12:34:47;;;;;;;;;;;26.40;24.20;;;;;;5057955;28;19929;-65
2022/04/03 12:37:15;;;;;;;;;;;26.40;24.20;;;;;;5068842;28;19932;-67
2022/04/03 12:40:02;;;;;;;;;;;26.30;24.10;;;;;;5068676;28;19924;-66
2022/04/03 12:42:34;;;;;;;;;;;26.30;24.10;;;;;;5057999;28;20312;-67
2022/04/03 12:45:05;;;;;;;;;;;26.20;23.90;;;;;;5070916;28;19929;-67
2022/04/03 12:47:34;;;;;;;;;;;26.30;23.90;;;;;;5068419;28;19970;-66
2022/04/03 12:50:12;;;;;;;;;;;26.30;24.00;;;;;;5072772;28;19990;-67
2022/04/03 12:52:43;;;;;;;;;;;26.20;23.90;;;;;;5055326;28;19972;-66
2022/04/03 12:55:32;;;;;;;;;;;26.20;23.90;;;;;;5072467;28;19978;-67
2022/04/03 12:58:26;;;;;;;;;;;26.20;23.90;;;;;;5072430;28;20443;-67
2022/04/03 13:00:58;;;;;;;;;;;26.20;23.90;;;;;;5073194;28;19975;-67
2022/04/03 13:03:39;;;;;;;;;;;26.20;24.00;;;;;;5073960;28;19925;-67
2022/04/03 13:06:08;;;;;;;;;;;26.10;23.90;;;;;;5073585;28;19924;-67
2022/04/03 13:08:48;;;;;;;;;;;26.10;24.30;;;;;;5072295;28;19932;-68
2022/04/03 13:11:26;;;;;;;;;;;26.10;23.80;;;;;;5072311;28;19950;-68
2022/04/03 13:13:53;;;;;;;;;;;26.10;23.80;;;;;;5072292;28;20401;-68
2022/04/03 13:16:20;;;;;;;;;;;26.10;23.80;;;;;;5072458;28;19931;-68
2022/04/03 13:18:48;;;;;;;;;;;26.10;23.80;;;;;;5068044;28;19924;-68
2022/04/03 13:21:19;;;;;;;;;;;26.10;23.80;;;;;;5072102;28;19932;-68
2022/04/03 13:23:46;;;;;;;;;;;26.00;23.80;;;;;;5071644;28;20524;-68
2022/04/03 13:26:33;;;;;;;;;;;26.00;23.80;;;;;;5057566;28;20023;-68
2022/04/03 13:29:00;;;;;;;;;;;26.00;23.80;;;;;;5054160;28;19935;-67
2022/04/03 13:31:27;;;;;;;;;;;26.00;23.70;;;;;;5072589;28;19924;-67
2022/04/03 13:33:54;;;;;;;;;;;26.10;23.90;;;;;;5072072;28;19978;-67
2022/04/03 13:36:21;;;;;;;;;;;26.00;23.80;;;;;;5072655;28;19978;-67
2022/04/03 13:38:50;;;;;;;;;;;26.00;23.90;;;;;;5072212;28;19979;-68
2022/04/03 13:41:19;;;;;;;;;;;26.00;23.80;;;;;;5071399;28;19929;-67
2022/04/03 13:43:46;;;;;;;;;;;26.00;23.90;;;;;;5071627;28;19970;-67
2022/04/03 13:46:13;;;;;;;;;;;26.00;23.80;;;;;;5071881;28;20424;-67
2022/04/03 13:48:40;;;;;;;;;;;26.00;23.80;;;;;;5053766;28;20458;-68
2022/04/03 13:51:09;;;;;;;;;;;26.10;23.90;;;;;;5066956;28;19924;-68
2022/04/03 13:53:36;;;;;;;;;;;26.00;23.80;;;;;;5070422;28;19986;-68
2022/04/03 13:56:04;;;;;;;;;;;26.10;23.80;;;;;;5071925;28;19932;-67
2022/04/03 13:58:33;;;;;;;;;;;26.10;23.70;;;;;;5070875;28;19925;-67
2022/04/03 14:01:01;;;;;;;;;;;26.10;23.60;;;;;;5071398;28;19928;-68
2022/04/03 14:03:30;;;;;;;;;;;26.10;23.70;;;;;;5071191;28;20436;-68
2022/04/03 14:05:57;;;;;;;;;;;26.10;23.70;;;;;;5071159;28;19994;-68
2022/04/03 14:08:25;;;;;;;;;;;26.00;23.60;;;;;;5071503;28;19924;-67
2022/04/03 14:10:52;;;;;;;;;;;26.10;23.60;;;;;;5053272;28;19952;-67
2022/04/03 14:13:21;;;;;;;;;;;26.00;23.50;;;;;;5070556;28;19925;-68
2022/04/03 14:15:48;;;;;;;;;;;26.00;23.50;;;;;;5071242;28;19924;-67
2022/04/03 14:18:16;;;;;;;;;;;26.00;23.50;;;;;;5070876;28;19925;-68
2022/04/03 14:20:43;;;;;;;;;;;26.00;23.60;;;;;;5071131;28;19971;-68
2022/04/03 14:23:10;;;;;;;;;;;26.00;23.50;;;;;;5066296;28;19925;-68
2022/04/03 14:25:37;;;;;;;;;;;26.00;23.50;;;;;;5070128;28;20435;-68